createdAt,value
2017-07-20T00:00:24.205Z,1003.03
2017-07-20T00:01:24.195Z,1002.98
2017-07-20T00:02:24.178Z,1002.97
2017-07-20T00:03:24.173Z,1002.96
2017-07-20T00:04:24.157Z,1002.98
2017-07-20T00:05:24.139Z,1002.95
2017-07-20T00:06:24.132Z,1002.97
2017-07-20T00:07:24.116Z,1002.9
2017-07-20T00:08:24.109Z,1002.87
2017-07-20T00:09:24.096Z,1002.89
2017-07-20T00:10:24.078Z,1002.9
2017-07-20T00:11:24.068Z,1002.95
2017-07-20T00:12:24.055Z,1002.93
2017-07-20T00:13:24.046Z,1002.96
2017-07-20T00:14:24.032Z,1002.98
2017-07-20T00:15:24.017Z,1002.96
2017-07-20T00:16:24.016Z,1002.96
2017-07-20T00:17:23.990Z,1002.99
2017-07-20T00:18:23.983Z,1002.95
2017-07-20T00:19:23.968Z,1002.93
2017-07-20T00:20:23.953Z,1002.89
2017-07-20T00:21:23.939Z,1002.9
2017-07-20T00:22:23.929Z,1002.89
2017-07-20T00:23:23.913Z,1002.84
2017-07-20T00:24:23.908Z,1002.87
2017-07-20T00:25:23.890Z,1002.86
2017-07-20T00:26:23.883Z,1002.8
2017-07-20T00:27:23.864Z,1002.77
2017-07-20T00:28:23.850Z,1002.79
2017-07-20T00:29:23.843Z,1002.76
2017-07-20T00:30:23.833Z,1002.76
2017-07-20T00:31:23.811Z,1002.72
2017-07-20T00:32:23.805Z,1002.68
2017-07-20T00:33:23.796Z,1002.64
2017-07-20T00:34:23.780Z,1002.57
2017-07-20T00:35:23.767Z,1002.54
2017-07-20T00:36:23.750Z,1002.54
2017-07-20T00:37:23.744Z,1002.58
2017-07-20T00:38:23.727Z,1002.58
2017-07-20T00:39:23.711Z,1002.62
2017-07-20T00:40:23.753Z,1002.61
2017-07-20T00:41:23.686Z,1002.61
2017-07-20T00:42:23.727Z,1002.58
2017-07-20T00:43:23.665Z,1002.53
2017-07-20T00:44:23.683Z,1002.5
2017-07-20T00:45:23.641Z,1002.55
2017-07-20T00:46:23.655Z,1002.57
2017-07-20T00:47:23.617Z,1002.57
2017-07-20T00:48:23.600Z,1002.57
2017-07-20T00:49:23.585Z,1002.58
2017-07-20T00:50:23.577Z,1002.56
2017-07-20T00:51:23.562Z,1002.55
2017-07-20T00:52:23.602Z,1002.52
2017-07-20T00:53:23.535Z,1002.54
2017-07-20T00:54:23.522Z,1002.59
2017-07-20T00:55:23.515Z,1002.65
2017-07-20T00:56:23.497Z,1002.72
2017-07-20T00:57:23.482Z,1002.72
2017-07-20T00:58:23.475Z,1002.72
2017-07-20T00:59:23.460Z,1002.74
2017-07-20T01:00:23.445Z,1002.8
2017-07-20T01:01:23.447Z,1002.79
2017-07-20T01:02:23.420Z,1002.81
2017-07-20T01:03:23.411Z,1002.8
2017-07-20T01:04:23.401Z,1002.75
2017-07-20T01:05:23.384Z,1002.7
2017-07-20T01:06:23.376Z,1002.64
2017-07-20T01:07:23.358Z,1002.58
2017-07-20T01:08:23.342Z,1002.47
2017-07-20T01:09:23.335Z,1002.5
2017-07-20T01:10:23.317Z,1002.45
2017-07-20T01:11:23.304Z,1002.45
2017-07-20T01:12:23.293Z,1002.45
2017-07-20T01:13:23.280Z,1002.44
2017-07-20T01:14:23.274Z,1002.38
2017-07-20T01:15:23.254Z,1002.31
2017-07-20T01:16:23.245Z,1002.28
2017-07-20T01:17:23.232Z,1002.27
2017-07-20T01:18:23.220Z,1002.21
2017-07-20T01:19:23.204Z,1002.2
2017-07-20T01:20:23.191Z,1002.21
2017-07-20T01:21:23.184Z,1002.22
2017-07-20T01:22:23.165Z,1002.25
2017-07-20T01:23:23.156Z,1002.26
2017-07-20T01:24:23.145Z,1002.23
2017-07-20T01:25:23.131Z,1002.22
2017-07-20T01:26:23.115Z,1002.18
2017-07-20T01:27:23.104Z,1002.2
2017-07-20T01:28:23.093Z,1002.21
2017-07-20T01:29:23.081Z,1002.19
2017-07-20T01:30:23.062Z,1002.23
2017-07-20T01:31:23.057Z,1002.2
2017-07-20T01:32:23.054Z,1002.2
2017-07-20T01:33:23.022Z,1002.18
2017-07-20T01:34:23.012Z,1002.18
2017-07-20T01:35:23.000Z,1002.1
2017-07-20T01:36:22.986Z,1002.01
2017-07-20T01:37:22.974Z,1001.92
2017-07-20T01:38:22.963Z,1001.85
2017-07-20T01:39:22.944Z,1001.8
2017-07-20T01:40:22.934Z,1001.78
2017-07-20T01:41:22.923Z,1001.77
2017-07-20T01:42:22.914Z,1001.78
2017-07-20T01:43:22.894Z,1001.81
2017-07-20T01:44:22.881Z,1001.81
2017-07-20T01:45:22.873Z,1001.83
2017-07-20T01:46:22.855Z,1001.88
2017-07-20T01:47:22.847Z,1001.97
2017-07-20T01:48:22.836Z,1002.02
2017-07-20T01:49:22.814Z,1002.1
2017-07-20T01:50:22.805Z,1002.06
2017-07-20T01:51:22.790Z,1002.07
2017-07-20T01:52:22.774Z,1002.05
2017-07-20T01:53:22.763Z,1001.97
2017-07-20T01:54:22.765Z,1001.91
2017-07-20T01:55:22.734Z,1001.87
2017-07-20T01:56:22.723Z,1001.85
2017-07-20T01:57:22.713Z,1001.77
2017-07-20T01:58:22.694Z,1001.69
2017-07-20T01:59:22.681Z,1001.68
2017-07-20T02:00:22.669Z,1001.73
2017-07-20T02:01:22.655Z,1001.67
2017-07-20T02:02:22.645Z,1001.67
2017-07-20T02:03:22.643Z,1001.64
2017-07-20T02:04:22.617Z,1001.61
2017-07-20T02:05:22.604Z,1001.53
2017-07-20T02:06:22.590Z,1001.49
2017-07-20T02:07:22.573Z,1001.47
2017-07-20T02:08:22.562Z,1001.45
2017-07-20T02:09:22.555Z,1001.46
2017-07-20T02:10:22.536Z,1001.52
2017-07-20T02:11:22.524Z,1001.6
2017-07-20T02:12:22.519Z,1001.64
2017-07-20T02:13:22.497Z,1001.7
2017-07-20T02:14:22.483Z,1001.71
2017-07-20T02:15:22.468Z,1001.72
2017-07-20T02:16:22.456Z,1001.69
2017-07-20T02:17:22.443Z,1001.7
2017-07-20T02:18:22.433Z,1001.62
2017-07-20T02:19:22.426Z,1001.56
2017-07-20T02:20:22.404Z,1001.55
2017-07-20T02:21:22.394Z,1001.49
2017-07-20T02:22:22.384Z,1001.51
2017-07-20T02:23:22.367Z,1001.57
2017-07-20T02:24:22.349Z,1001.58
2017-07-20T02:25:22.333Z,1001.55
2017-07-20T02:26:22.325Z,1001.61
2017-07-20T02:27:22.312Z,1001.64
2017-07-20T02:28:22.299Z,1001.61
2017-07-20T02:29:22.282Z,1001.54
2017-07-20T02:30:22.274Z,1001.52
2017-07-20T02:31:22.264Z,1001.5
2017-07-20T02:32:22.242Z,1001.48
2017-07-20T02:33:22.244Z,1001.51
2017-07-20T02:34:22.217Z,1001.44
2017-07-20T02:35:22.201Z,1001.43
2017-07-20T02:36:22.193Z,1001.37
2017-07-20T02:37:22.175Z,1001.34
2017-07-20T02:38:22.164Z,1001.35
2017-07-20T02:39:22.153Z,1001.34
2017-07-20T02:40:22.134Z,1001.33
2017-07-20T02:41:22.123Z,1001.32
2017-07-20T02:42:22.108Z,1001.3
2017-07-20T02:43:22.094Z,1001.31
2017-07-20T02:44:22.087Z,1001.35
2017-07-20T02:45:22.074Z,1001.31
2017-07-20T02:46:22.062Z,1001.29
2017-07-20T02:47:22.044Z,1001.35
2017-07-20T02:48:22.031Z,1001.4
2017-07-20T02:49:22.018Z,1001.41
2017-07-20T02:50:22.004Z,1001.37
2017-07-20T02:51:21.993Z,1001.36
2017-07-20T02:52:21.979Z,1001.33
2017-07-20T02:53:21.962Z,1001.3
2017-07-20T02:54:21.954Z,1001.28
2017-07-20T02:55:21.940Z,1001.27
2017-07-20T02:56:21.923Z,1001.28
2017-07-20T02:57:21.914Z,1001.2
2017-07-20T02:58:21.904Z,1001.22
2017-07-20T02:59:21.894Z,1001.16
2017-07-20T03:00:21.876Z,1001.24
2017-07-20T03:01:21.854Z,1001.2
2017-07-20T03:02:21.845Z,1001.2
2017-07-20T03:03:21.834Z,1001.16
2017-07-20T03:04:21.817Z,1001.09
2017-07-20T03:05:21.812Z,1001.06
2017-07-20T03:06:21.800Z,1001.05
2017-07-20T03:07:21.777Z,1001.08
2017-07-20T03:08:21.766Z,1001.06
2017-07-20T03:09:21.751Z,1001.06
2017-07-20T03:10:21.841Z,1001.04
2017-07-20T03:11:21.724Z,1001.07
2017-07-20T03:12:21.714Z,1001.07
2017-07-20T03:13:21.705Z,1001.05
2017-07-20T03:14:21.687Z,1001.06
2017-07-20T03:15:21.713Z,1001.04
2017-07-20T03:16:21.705Z,1001.03
2017-07-20T03:17:21.689Z,1001.03
2017-07-20T03:18:21.776Z,1001.05
2017-07-20T03:19:21.657Z,1000.97
2017-07-20T03:20:21.645Z,1000.99
2017-07-20T03:21:21.628Z,1000.94
2017-07-20T03:22:21.615Z,1000.97
2017-07-20T03:23:21.604Z,1001.04
2017-07-20T03:24:21.564Z,1001.1
2017-07-20T03:25:21.587Z,1001.08
2017-07-20T03:26:21.564Z,1001.01
2017-07-20T03:27:21.556Z,1001.02
2017-07-20T03:28:21.533Z,1001.03
2017-07-20T03:29:21.524Z,1000.96
2017-07-20T03:30:21.514Z,1000.85
2017-07-20T03:31:21.500Z,1000.87
2017-07-20T03:32:21.457Z,1000.93
2017-07-20T03:33:21.466Z,1000.97
2017-07-20T03:34:21.440Z,1000.93
2017-07-20T03:35:21.433Z,1000.89
2017-07-20T03:36:21.439Z,1000.91
2017-07-20T03:37:21.412Z,1000.94
2017-07-20T03:38:21.396Z,1000.9
2017-07-20T03:39:21.395Z,1000.84
2017-07-20T03:40:21.369Z,1000.75
2017-07-20T03:41:21.331Z,1000.75
2017-07-20T03:42:21.304Z,1000.74
2017-07-20T03:43:21.296Z,1000.77
2017-07-20T03:44:21.278Z,1000.79
2017-07-20T03:45:21.265Z,1000.86
2017-07-20T03:46:21.260Z,1000.9
2017-07-20T03:47:21.237Z,1000.9
2017-07-20T03:48:21.223Z,1000.88
2017-07-20T03:49:21.210Z,1000.81
2017-07-20T03:50:21.201Z,1000.77
2017-07-20T03:51:21.184Z,1000.8
2017-07-20T03:52:21.174Z,1000.86
2017-07-20T03:53:21.156Z,1000.84
2017-07-20T03:54:21.150Z,1000.89
2017-07-20T03:55:21.131Z,1000.91
2017-07-20T03:56:21.113Z,1000.98
2017-07-20T03:57:21.100Z,1000.87
2017-07-20T03:58:21.087Z,1000.84
2017-07-20T03:59:21.074Z,1000.84
2017-07-20T04:00:21.074Z,1000.89
2017-07-20T04:01:21.045Z,1000.88
2017-07-20T04:02:21.031Z,1000.86
2017-07-20T04:03:21.013Z,1000.91
2017-07-20T04:04:21.003Z,1000.97
2017-07-20T04:05:20.985Z,1000.98
2017-07-20T04:06:20.978Z,1001.01
2017-07-20T04:07:20.964Z,1001.1
2017-07-20T04:08:20.947Z,1001.15
2017-07-20T04:09:20.935Z,1001.19
2017-07-20T04:10:20.924Z,1001.26
2017-07-20T04:11:20.904Z,1001.3
2017-07-20T04:12:20.894Z,1001.34
2017-07-20T04:13:20.881Z,1001.34
2017-07-20T04:14:20.866Z,1001.4
2017-07-20T04:15:20.852Z,1001.44
2017-07-20T04:16:20.840Z,1001.45
2017-07-20T04:17:20.824Z,1001.41
2017-07-20T04:18:20.804Z,1001.3
2017-07-20T04:19:20.794Z,1001.28
2017-07-20T04:20:20.784Z,1001.23
2017-07-20T04:21:20.765Z,1001.31
2017-07-20T04:22:20.748Z,1001.33
2017-07-20T04:23:20.734Z,1001.36
2017-07-20T04:24:20.721Z,1001.46
2017-07-20T04:25:20.714Z,1001.57
2017-07-20T04:26:20.694Z,1001.72
2017-07-20T04:27:20.681Z,1001.92
2017-07-20T04:28:20.668Z,1001.98
2017-07-20T04:29:20.651Z,1002.05
2017-07-20T04:30:20.646Z,1002.09
2017-07-20T04:31:20.633Z,1002.1
2017-07-20T04:32:20.610Z,1002.05
2017-07-20T04:33:20.594Z,1002.02
2017-07-20T04:34:20.584Z,1001.99
2017-07-20T04:35:20.573Z,1002.01
2017-07-20T04:36:20.556Z,1001.96
2017-07-20T04:37:20.544Z,1001.83
2017-07-20T04:38:20.525Z,1001.82
2017-07-20T04:39:20.513Z,1001.82
2017-07-20T04:40:20.499Z,1001.82
2017-07-20T04:41:20.492Z,1001.81
2017-07-20T04:42:20.474Z,1001.71
2017-07-20T04:43:20.461Z,1001.75
2017-07-20T04:44:20.445Z,1001.75
2017-07-20T04:45:20.436Z,1001.77
2017-07-20T04:46:20.425Z,1001.87
2017-07-20T04:47:20.432Z,1001.91
2017-07-20T04:48:20.393Z,1001.92
2017-07-20T04:49:20.432Z,1001.89
2017-07-20T04:50:20.363Z,1001.85
2017-07-20T04:51:20.402Z,1001.84
2017-07-20T04:52:20.343Z,1001.88
2017-07-20T04:53:20.323Z,1001.94
2017-07-20T04:54:20.311Z,1001.99
2017-07-20T04:55:20.355Z,1002.02
2017-07-20T04:56:20.283Z,1002.13
2017-07-20T04:57:20.276Z,1002.15
2017-07-20T04:58:20.268Z,1002.2
2017-07-20T04:59:20.247Z,1002.34
2017-07-20T05:00:20.234Z,1002.43
2017-07-20T05:01:20.266Z,1002.51
2017-07-20T05:02:20.203Z,1002.49
2017-07-20T05:03:20.185Z,1002.54
2017-07-20T05:04:20.177Z,1002.63
2017-07-20T05:05:20.174Z,1002.69
2017-07-20T05:06:20.152Z,1002.65
2017-07-20T05:07:20.134Z,1002.6
2017-07-20T05:08:20.126Z,1002.72
2017-07-20T05:09:20.109Z,1002.74
2017-07-20T05:10:20.096Z,1002.7
2017-07-20T05:11:20.083Z,1002.68
2017-07-20T05:12:20.065Z,1002.56
2017-07-20T05:13:20.055Z,1002.6
2017-07-20T05:14:20.043Z,1002.59
2017-07-20T05:15:20.032Z,1002.54
2017-07-20T05:16:20.013Z,1002.57
2017-07-20T05:17:19.999Z,1002.66
2017-07-20T05:18:20.000Z,1002.67
2017-07-20T05:19:19.973Z,1002.69
2017-07-20T05:20:19.962Z,1002.76
2017-07-20T05:21:19.943Z,1002.76
2017-07-20T05:22:19.933Z,1002.79
2017-07-20T05:23:19.915Z,1002.81
2017-07-20T05:24:19.912Z,1002.84
2017-07-20T05:25:19.893Z,1002.84
2017-07-20T05:26:19.875Z,1002.94
2017-07-20T05:27:19.869Z,1002.95
2017-07-20T05:28:19.847Z,1002.97
2017-07-20T05:29:19.836Z,1002.99
2017-07-20T05:30:19.823Z,1003
2017-07-20T05:31:19.813Z,1003.04
2017-07-20T05:32:19.795Z,1003.05
2017-07-20T05:33:19.782Z,1003.03
2017-07-20T05:34:19.772Z,1002.97
2017-07-20T05:35:19.749Z,1002.9
2017-07-20T05:36:19.735Z,1002.82
2017-07-20T05:37:19.723Z,1002.87
2017-07-20T05:38:19.716Z,1002.86
2017-07-20T05:39:19.704Z,1002.87
2017-07-20T05:40:19.681Z,1002.86
2017-07-20T05:41:19.677Z,1002.84
2017-07-20T05:42:19.654Z,1002.8
2017-07-20T05:43:19.644Z,1002.85
2017-07-20T05:44:19.636Z,1002.82
2017-07-20T05:45:19.617Z,1002.83
2017-07-20T05:46:19.601Z,1002.86
2017-07-20T05:47:19.587Z,1002.92
2017-07-20T05:48:19.576Z,1002.98
2017-07-20T05:49:19.561Z,1003
2017-07-20T05:50:19.544Z,1002.98
2017-07-20T05:51:19.539Z,1003.01
2017-07-20T05:52:19.524Z,1003.05
2017-07-20T05:53:19.503Z,1002.99
2017-07-20T05:54:19.494Z,1003.09
2017-07-20T05:55:19.485Z,1003.03
2017-07-20T05:56:19.475Z,1003.01
2017-07-20T05:57:19.454Z,1003.07
2017-07-20T05:58:19.435Z,1003.06
2017-07-20T05:59:19.424Z,1003.03
2017-07-20T06:00:19.414Z,1003
2017-07-20T06:01:19.398Z,1002.98
2017-07-20T06:02:19.381Z,1002.99
2017-07-20T06:03:19.372Z,1002.97
2017-07-20T06:04:19.356Z,1003
2017-07-20T06:05:19.341Z,1002.99
2017-07-20T06:06:19.328Z,1002.98
2017-07-20T06:07:19.314Z,1003.01
2017-07-20T06:08:19.302Z,1002.97
2017-07-20T06:09:19.289Z,1003.03
2017-07-20T06:10:19.282Z,1003
2017-07-20T06:11:19.256Z,1002.98
2017-07-20T06:12:19.244Z,1002.98
2017-07-20T06:13:19.237Z,1002.9
2017-07-20T06:14:19.220Z,1002.86
2017-07-20T06:15:19.205Z,1002.83
2017-07-20T06:16:19.197Z,1002.8
2017-07-20T06:17:19.183Z,1002.82
2017-07-20T06:18:19.170Z,1002.82
2017-07-20T06:19:19.151Z,1002.78
2017-07-20T06:20:19.138Z,1002.72
2017-07-20T06:21:19.124Z,1002.68
2017-07-20T06:22:19.110Z,1002.66
2017-07-20T06:23:19.093Z,1002.59
2017-07-20T06:24:19.087Z,1002.49
2017-07-20T06:25:19.080Z,1002.44
2017-07-20T06:26:19.052Z,1002.41
2017-07-20T06:27:19.042Z,1002.43
2017-07-20T06:28:19.029Z,1002.44
2017-07-20T06:29:19.014Z,1002.38
2017-07-20T06:30:19.006Z,1002.41
2017-07-20T06:31:18.997Z,1002.4
2017-07-20T06:32:18.974Z,1002.4
2017-07-20T06:33:18.962Z,1002.39
2017-07-20T06:34:18.947Z,1002.33
2017-07-20T06:35:18.936Z,1002.28
2017-07-20T06:36:18.928Z,1002.31
2017-07-20T06:37:18.903Z,1002.34
2017-07-20T06:38:18.897Z,1002.33
2017-07-20T06:39:18.883Z,1002.36
2017-07-20T06:40:18.864Z,1002.29
2017-07-20T06:41:18.857Z,1002.25
2017-07-20T06:42:18.844Z,1002.23
2017-07-20T06:43:18.825Z,1002.24
2017-07-20T06:44:18.811Z,1002.23
2017-07-20T06:45:18.795Z,1002.26
2017-07-20T06:46:18.782Z,1002.24
2017-07-20T06:47:18.770Z,1002.16
2017-07-20T06:48:18.760Z,1002.16
2017-07-20T06:49:18.745Z,1002.13
2017-07-20T06:50:18.732Z,1002.09
2017-07-20T06:51:18.718Z,1002.06
2017-07-20T06:52:18.706Z,1002.08
2017-07-20T06:53:18.695Z,1002.12
2017-07-20T06:54:18.675Z,1002.13
2017-07-20T06:55:18.663Z,1002.15
2017-07-20T06:56:18.662Z,1002.1
2017-07-20T06:57:18.640Z,1002.14
2017-07-20T06:58:18.625Z,1002.14
2017-07-20T06:59:18.613Z,1002.11
2017-07-20T07:00:18.603Z,1002.11
2017-07-20T07:01:18.583Z,1002.13
2017-07-20T07:02:18.573Z,1002.13
2017-07-20T07:03:18.562Z,1002.16
2017-07-20T07:04:18.547Z,1002.14
2017-07-20T07:05:18.537Z,1002.16
2017-07-20T07:06:18.524Z,1002.17
2017-07-20T07:07:18.511Z,1002.14
2017-07-20T07:08:18.496Z,1002.16
2017-07-20T07:09:18.482Z,1002.13
2017-07-20T07:10:18.471Z,1002.15
2017-07-20T07:11:18.458Z,1002.12
2017-07-20T07:12:18.452Z,1002.09
2017-07-20T07:13:18.431Z,1002.08
2017-07-20T07:14:18.425Z,1002.01
2017-07-20T07:15:18.415Z,1001.97
2017-07-20T07:16:18.400Z,1001.94
2017-07-20T07:17:18.384Z,1001.95
2017-07-20T07:18:18.374Z,1002
2017-07-20T07:19:18.371Z,1002.01
2017-07-20T07:20:18.356Z,1001.96
2017-07-20T07:21:18.334Z,1001.99
2017-07-20T07:22:18.327Z,1002.03
2017-07-20T07:23:18.314Z,1001.98
2017-07-20T07:24:18.304Z,1001.99
2017-07-20T07:25:18.288Z,1001.98
2017-07-20T07:26:18.275Z,1002.01
2017-07-20T07:27:18.333Z,1001.98
2017-07-20T07:28:18.254Z,1001.98
2017-07-20T07:29:18.340Z,1002.03
2017-07-20T07:30:18.233Z,1002.04
2017-07-20T07:31:18.310Z,1002.1
2017-07-20T07:32:18.208Z,1002.13
2017-07-20T07:33:18.239Z,1002.18
2017-07-20T07:34:18.203Z,1002.24
2017-07-20T07:35:18.178Z,1002.27
2017-07-20T07:36:18.164Z,1002.26
2017-07-20T07:37:18.196Z,1002.32
2017-07-20T07:38:18.128Z,1002.27
2017-07-20T07:39:18.178Z,1002.26
2017-07-20T07:40:18.106Z,1002.24
2017-07-20T07:41:18.091Z,1002.2
2017-07-20T07:42:18.086Z,1002.21
2017-07-20T07:43:18.069Z,1002.19
2017-07-20T07:44:18.055Z,1002.18
2017-07-20T07:45:18.043Z,1002.11
2017-07-20T07:46:18.031Z,1002.14
2017-07-20T07:47:18.015Z,1002.04
2017-07-20T07:48:18.003Z,1002.05
2017-07-20T07:49:18.006Z,1002.06
2017-07-20T07:50:17.984Z,1002.09
2017-07-20T07:51:17.972Z,1002.07
2017-07-20T07:52:17.956Z,1002.06
2017-07-20T07:53:17.940Z,1002.05
2017-07-20T07:54:17.928Z,1002.05
2017-07-20T07:55:17.934Z,1002.06
2017-07-20T07:56:17.905Z,1002.05
2017-07-20T07:57:17.897Z,1002.09
2017-07-20T07:58:17.880Z,1002.12
2017-07-20T07:59:17.866Z,1002.1
2017-07-20T08:00:17.855Z,1002.07
2017-07-20T08:01:17.844Z,1002.08
2017-07-20T08:02:17.830Z,1002.09
2017-07-20T08:03:17.834Z,1002.09
2017-07-20T08:04:17.803Z,1002.1
2017-07-20T08:05:17.795Z,1002.1
2017-07-20T08:06:17.786Z,1002.13
2017-07-20T08:07:17.772Z,1002.12
2017-07-20T08:08:17.757Z,1002.15
2017-07-20T08:09:17.745Z,1002.13
2017-07-20T08:10:17.736Z,1002.11
2017-07-20T08:11:17.727Z,1002.13
2017-07-20T08:12:17.706Z,1002.16
2017-07-20T08:13:17.699Z,1002.15
2017-07-20T08:14:17.680Z,1002.15
2017-07-20T08:15:17.673Z,1002.18
2017-07-20T08:16:17.654Z,1002.12
2017-07-20T08:17:17.656Z,1002.17
2017-07-20T08:18:17.633Z,1002.14
2017-07-20T08:19:17.620Z,1002.16
2017-07-20T08:20:17.603Z,1002.16
2017-07-20T08:21:17.596Z,1002.15
2017-07-20T08:22:17.583Z,1002.14
2017-07-20T08:23:17.564Z,1002.17
2017-07-20T08:24:17.558Z,1002.12
2017-07-20T08:25:17.546Z,1002.14
2017-07-20T08:26:17.527Z,1002.07
2017-07-20T08:27:17.515Z,1002.09
2017-07-20T08:28:17.505Z,1002.13
2017-07-20T08:29:17.495Z,1002.15
2017-07-20T08:30:17.474Z,1002.13
2017-07-20T08:31:17.466Z,1002.17
2017-07-20T08:32:17.455Z,1002.16
2017-07-20T08:33:17.450Z,1002.2
2017-07-20T08:34:17.431Z,1002.22
2017-07-20T08:35:17.415Z,1002.22
2017-07-20T08:36:17.403Z,1002.27
2017-07-20T08:37:17.392Z,1002.21
2017-07-20T08:38:17.382Z,1002.18
2017-07-20T08:39:17.367Z,1002.19
2017-07-20T08:40:17.356Z,1002.18
2017-07-20T08:41:17.342Z,1002.18
2017-07-20T08:42:17.335Z,1002.19
2017-07-20T08:43:17.318Z,1002.21
2017-07-20T08:44:17.302Z,1002.24
2017-07-20T08:45:17.294Z,1002.2
2017-07-20T08:46:17.291Z,1002.25
2017-07-20T08:47:17.272Z,1002.27
2017-07-20T08:48:17.254Z,1002.25
2017-07-20T08:49:17.242Z,1002.27
2017-07-20T08:50:17.235Z,1002.21
2017-07-20T08:51:17.223Z,1002.28
2017-07-20T08:52:17.204Z,1002.22
2017-07-20T08:53:17.190Z,1002.22
2017-07-20T08:54:17.189Z,1002.21
2017-07-20T08:55:17.172Z,1002.2
2017-07-20T08:56:17.164Z,1002.2
2017-07-20T08:57:17.149Z,1002.16
2017-07-20T08:58:17.131Z,1002.22
2017-07-20T08:59:17.126Z,1002.26
2017-07-20T09:00:17.113Z,1002.32
2017-07-20T09:01:17.105Z,1002.26
2017-07-20T09:02:17.095Z,1002.25
2017-07-20T09:03:17.074Z,1002.33
2017-07-20T09:04:17.065Z,1002.36
2017-07-20T09:05:17.047Z,1002.34
2017-07-20T09:06:17.035Z,1002.35
2017-07-20T09:07:17.028Z,1002.32
2017-07-20T09:08:17.016Z,1002.37
2017-07-20T09:09:17.006Z,1002.36
2017-07-20T09:10:16.987Z,1002.38
2017-07-20T09:11:16.976Z,1002.37
2017-07-20T09:12:16.961Z,1002.38
2017-07-20T09:13:16.958Z,1002.41
2017-07-20T09:14:16.950Z,1002.41
2017-07-20T09:15:16.927Z,1002.38
2017-07-20T09:16:16.915Z,1002.44
2017-07-20T09:17:16.907Z,1002.38
2017-07-20T09:18:16.896Z,1002.36
2017-07-20T09:19:16.886Z,1002.31
2017-07-20T09:20:16.865Z,1002.36
2017-07-20T09:21:16.856Z,1002.39
2017-07-20T09:22:16.849Z,1002.39
2017-07-20T09:23:16.831Z,1002.43
2017-07-20T09:24:16.821Z,1002.41
2017-07-20T09:25:16.816Z,1002.46
2017-07-20T09:26:16.799Z,1002.41
2017-07-20T09:27:16.786Z,1002.37
2017-07-20T09:28:16.772Z,1002.46
2017-07-20T09:29:16.760Z,1002.43
2017-07-20T09:30:16.757Z,1002.43
2017-07-20T09:31:16.737Z,1002.44
2017-07-20T09:32:16.728Z,1002.46
2017-07-20T09:33:16.721Z,1002.48
2017-07-20T09:34:16.708Z,1002.46
2017-07-20T09:35:16.691Z,1002.38
2017-07-20T09:36:16.675Z,1002.4
2017-07-20T09:37:16.669Z,1002.37
2017-07-20T09:38:16.650Z,1002.34
2017-07-20T09:39:16.649Z,1002.27
2017-07-20T09:40:16.633Z,1002.31
2017-07-20T09:41:16.620Z,1002.34
2017-07-20T09:42:16.607Z,1002.34
2017-07-20T09:43:16.604Z,1002.39
2017-07-20T09:44:16.587Z,1002.37
2017-07-20T09:45:16.620Z,1002.39
2017-07-20T09:46:16.560Z,1002.3
2017-07-20T09:47:16.581Z,1002.37
2017-07-20T09:48:16.543Z,1002.36
2017-07-20T09:49:16.628Z,1002.34
2017-07-20T09:50:16.517Z,1002.32
2017-07-20T09:51:16.509Z,1002.37
2017-07-20T09:52:16.494Z,1002.36
2017-07-20T09:53:16.585Z,1002.36
2017-07-20T09:54:16.472Z,1002.34
2017-07-20T09:55:16.464Z,1002.45
2017-07-20T09:56:16.467Z,1002.42
2017-07-20T09:57:16.456Z,1002.38
2017-07-20T09:58:16.439Z,1002.4
2017-07-20T09:59:16.425Z,1002.42
2017-07-20T10:00:16.414Z,1002.4
2017-07-20T10:01:16.405Z,1002.42
2017-07-20T10:02:16.395Z,1002.44
2017-07-20T10:03:16.384Z,1002.46
2017-07-20T10:04:16.378Z,1002.51
2017-07-20T10:05:16.372Z,1002.43
2017-07-20T10:06:16.363Z,1002.43
2017-07-20T10:07:16.353Z,1002.33
2017-07-20T10:08:16.341Z,1002.34
2017-07-20T10:09:16.334Z,1002.39
2017-07-20T10:10:16.323Z,1002.31
2017-07-20T10:11:16.316Z,1002.36
2017-07-20T10:12:16.306Z,1002.36
2017-07-20T10:13:16.297Z,1002.33
2017-07-20T10:14:16.287Z,1002.27
2017-07-20T10:15:16.287Z,1002.25
2017-07-20T10:16:16.273Z,1002.27
2017-07-20T10:17:16.276Z,1002.26
2017-07-20T10:18:16.270Z,1002.24
2017-07-20T10:19:16.246Z,1002.25
2017-07-20T10:20:16.240Z,1002.29
2017-07-20T10:21:16.235Z,1002.27
2017-07-20T10:22:16.218Z,1002.28
2017-07-20T10:23:16.216Z,1002.25
2017-07-20T10:24:16.203Z,1002.26
2017-07-20T10:25:16.194Z,1002.27
2017-07-20T10:26:16.187Z,1002.28
2017-07-20T10:27:16.175Z,1002.24
2017-07-20T10:28:16.174Z,1002.25
2017-07-20T10:29:16.164Z,1002.23
2017-07-20T10:30:16.153Z,1002.21
2017-07-20T10:31:16.144Z,1002.16
2017-07-20T10:32:16.138Z,1002.23
2017-07-20T10:33:16.122Z,1002.16
2017-07-20T10:34:16.116Z,1002.12
2017-07-20T10:35:16.103Z,1002.11
2017-07-20T10:36:16.094Z,1002.12
2017-07-20T10:37:16.084Z,1002.17
2017-07-20T10:38:16.080Z,1002.08
2017-07-20T10:39:16.064Z,1002.12
2017-07-20T10:40:16.115Z,1002.12
2017-07-20T10:41:16.056Z,1002.1
2017-07-20T10:42:16.044Z,1002.14
2017-07-20T10:43:16.029Z,1002.14
2017-07-20T10:44:16.027Z,1002.12
2017-07-20T10:45:16.016Z,1002.12
2017-07-20T10:46:16.006Z,1002.09
2017-07-20T10:47:15.995Z,1002.14
2017-07-20T10:48:15.985Z,1002.07
2017-07-20T10:49:15.984Z,1002.17
2017-07-20T10:50:15.969Z,1002.11
2017-07-20T10:51:15.962Z,1002.08
2017-07-20T10:52:15.955Z,1002.09
2017-07-20T10:53:15.946Z,1002.25
2017-07-20T10:54:15.937Z,1002.16
2017-07-20T10:55:15.925Z,1002.17
2017-07-20T10:56:15.915Z,1002.15
2017-07-20T10:57:15.904Z,1002.12
2017-07-20T10:58:15.898Z,1002.14
2017-07-20T10:59:15.884Z,1002.14
2017-07-20T11:00:15.876Z,1002.22
2017-07-20T11:01:15.874Z,1002.16
2017-07-20T11:02:15.866Z,1002.15
2017-07-20T11:03:15.855Z,1002.14
2017-07-20T11:04:15.843Z,1002.1
2017-07-20T11:05:15.836Z,1002.13
2017-07-20T11:06:15.835Z,1002.13
2017-07-20T11:07:15.821Z,1002.12
2017-07-20T11:08:15.812Z,1002.13
2017-07-20T11:09:15.817Z,1002.1
2017-07-20T11:10:15.797Z,1002.1
2017-07-20T11:11:15.789Z,1002.09
2017-07-20T11:12:15.781Z,1002.1
2017-07-20T11:13:15.769Z,1002.15
2017-07-20T11:14:15.766Z,1002.09
2017-07-20T11:15:15.754Z,1002.03
2017-07-20T11:16:15.744Z,1002.15
2017-07-20T11:17:15.734Z,1002.15
2017-07-20T11:18:15.724Z,1002.17
2017-07-20T11:19:15.716Z,1002.1
2017-07-20T11:20:15.705Z,1002.07
2017-07-20T11:21:15.695Z,1002.12
2017-07-20T11:22:15.686Z,1002.01
2017-07-20T11:23:15.683Z,1002.04
2017-07-20T11:24:15.677Z,1002.1
2017-07-20T11:25:15.662Z,1002.07
2017-07-20T11:26:15.654Z,1002.08
2017-07-20T11:27:15.639Z,1002.07
2017-07-20T11:28:15.632Z,1002.11
2017-07-20T11:29:15.626Z,1002.08
2017-07-20T11:30:15.626Z,1002.03
2017-07-20T11:31:15.603Z,1002.09
2017-07-20T11:32:15.594Z,1002.1
2017-07-20T11:33:15.583Z,1002.08
2017-07-20T11:34:15.582Z,1002.03
2017-07-20T11:35:15.565Z,1002.01
2017-07-20T11:36:15.554Z,1001.99
2017-07-20T11:37:15.546Z,1002
2017-07-20T11:38:15.538Z,1002.01
2017-07-20T11:39:15.527Z,1002.02
2017-07-20T11:40:15.527Z,1002.07
2017-07-20T11:41:15.504Z,1002
2017-07-20T11:42:15.495Z,1001.99
2017-07-20T11:43:15.484Z,1002.01
2017-07-20T11:44:15.485Z,1002.01
2017-07-20T11:45:15.477Z,1002.01
2017-07-20T11:46:15.458Z,1002.01
2017-07-20T11:47:15.453Z,1002.05
2017-07-20T11:48:15.434Z,1002.06
2017-07-20T11:49:15.423Z,1002.04
2017-07-20T11:50:15.413Z,1002.04
2017-07-20T11:51:15.412Z,1002.08
2017-07-20T11:52:15.396Z,1002.1
2017-07-20T11:53:15.396Z,1002.06
2017-07-20T11:54:15.383Z,1002.08
2017-07-20T11:55:15.367Z,1002.08
2017-07-20T11:56:15.367Z,1002.06
2017-07-20T11:57:15.354Z,1002.07
2017-07-20T11:58:15.347Z,1002.06
2017-07-20T11:59:15.341Z,1002.1
2017-07-20T12:00:15.322Z,1002.09
2017-07-20T12:01:15.316Z,1002.11
2017-07-20T12:02:15.310Z,1002.08
2017-07-20T12:03:15.292Z,1002.06
2017-07-20T12:04:15.282Z,1002.08
2017-07-20T12:05:15.274Z,1002.07
2017-07-20T12:06:15.265Z,1002.07
2017-07-20T12:07:15.258Z,1001.98
2017-07-20T12:08:15.254Z,1002